Time;durP1;ratioP1;P1;durP2;ratioP2;P2;SDS_P1;SDS_P2;PMS_P1;PMS_P2;Temp;Humidity;BMP_temperature;BMP_pressure;BME280_temperature;BME280_humidity;BME280_pressure;Samples;Min_cycle;Max_cycle;Signal;HPM_P1;HPM_P2
2022/08/17 00:01:22;;;;;;;5.95;5.43;;;;;;;23.21;51.85;95102.28;4891719;29;20200;-84
2022/08/17 00:03:50;;;;;;;6.25;5.65;;;;;;;23.08;52.28;95105.47;4886407;29;20245;-84
2022/08/17 00:06:19;;;;;;;6.85;5.93;;;;;;;22.72;53.24;95102.06;4890609;29;20210;-84
2022/08/17 00:08:48;;;;;;;6.32;5.72;;;;;;;22.58;53.75;95106.28;4880430;29;20708;-84
2022/08/17 00:11:19;;;;;;;6.15;5.65;;;;;;;22.69;53.19;95105.25;4888944;29;20211;-84
2022/08/17 00:13:49;;;;;;;6.10;5.60;;;;;;;22.68;53.73;95109.72;4899351;29;20242;-84
2022/08/17 00:16:19;;;;;;;6.05;5.53;;;;;;;22.63;54.34;95095.78;4889617;29;20271;-84
2022/08/17 00:18:45;;;;;;;6.07;5.47;;;;;;;22.72;53.58;95094.19;4881173;29;20845;-84
2022/08/17 00:21:13;;;;;;;6.55;5.95;;;;;;;22.76;53.45;95090.00;4884660;29;20270;-84
2022/08/17 00:23:40;;;;;;;6.03;5.43;;;;;;;22.68;54.10;95091.34;4886405;29;20656;-84
2022/08/17 00:26:07;;;;;;;6.32;5.72;;;;;;;22.64;54.36;95086.88;4880682;29;20208;-84
2022/08/17 00:28:33;;;;;;;6.72;6.13;;;;;;;22.69;53.94;95082.41;4881392;29;20211;-84
2022/08/17 00:31:01;;;;;;;7.32;5.72;;;;;;;22.73;53.59;95083.44;4886715;29;20219;-84
2022/08/17 00:33:30;;;;;;;6.05;5.50;;;;;;;22.72;54.40;95079.22;4895782;29;20230;-84
2022/08/17 00:35:58;;;;;;;5.85;5.35;;;;;;;22.67;54.62;95081.09;4880409;29;20208;-84
2022/08/17 00:38:25;;;;;;;6.45;5.90;;;;;;;22.69;54.08;95082.41;4881346;29;20204;-84
2022/08/17 00:40:55;;;;;;;6.70;5.95;;;;;;;22.75;53.68;95078.72;4893182;29;20751;-84
2022/08/17 00:43:28;;;;;;;6.70;6.10;;;;;;;22.71;54.29;95075.03;4881484;29;20270;-84
2022/08/17 00:45:56;;;;;;;5.53;5.10;;;;;;;22.78;53.97;95072.19;4898585;29;20271;-83
2022/08/17 00:48:24;;;;;;;5.80;5.30;;;;;;;22.71;54.41;95075.03;4880688;29;20783;-84
2022/08/17 00:50:57;;;;;;;6.30;5.75;;;;;;;22.73;53.77;95075.56;4884730;29;20211;-84
2022/08/17 00:53:25;;;;;;;6.63;5.85;;;;;;;22.74;53.59;95074.50;4898730;29;20230;-83
2022/08/17 00:55:52;;;;;;;7.70;6.55;;;;;;;22.64;54.17;95069.28;4893734;29;20200;-84
2022/08/17 00:58:19;;;;;;;6.03;5.53;;;;;;;22.35;55.09;95069.03;4880205;29;20267;-84
2022/08/17 01:00:46;;;;;;;6.20;5.63;;;;;;;22.18;55.87;95073.75;4883664;29;20222;-83
2022/08/17 01:03:18;;;;;;;5.72;5.22;;;;;;;22.18;55.88;95063.25;4897194;29;20207;-83
2022/08/17 01:05:48;;;;;;;6.10;5.50;;;;;;;22.26;55.59;95065.38;4883496;29;20215;-84
2022/08/17 01:08:18;;;;;;;7.63;5.60;;;;;;;22.38;55.03;95065.88;4898953;29;20207;-84
2022/08/17 01:10:47;;;;;;;6.30;5.70;;;;;;;22.43;55.41;95064.31;4894990;29;20204;-83
2022/08/17 01:13:14;;;;;;;6.25;5.65;;;;;;;22.49;54.71;95061.44;4880600;29;20231;-84
2022/08/17 01:15:46;;;;;;;6.43;5.82;;;;;;;22.43;55.27;95064.31;4883299;29;20234;-84
2022/08/17 01:18:13;;;;;;;6.22;5.72;;;;;;;22.40;55.51;95063.00;4898466;29;20591;-84
2022/08/17 01:20:45;;;;;;;6.53;5.70;;;;;;;22.36;55.70;95064.56;4897086;29;20699;-84
2022/08/17 01:23:12;;;;;;;5.70;5.20;;;;;;;22.40;55.38;95069.03;4899708;29;20788;-84
2022/08/17 01:25:40;;;;;;;5.80;5.30;;;;;;;22.41;55.32;95064.56;4898863;29;20230;-84
2022/08/17 01:28:07;;;;;;;7.53;5.45;;;;;;;22.40;54.93;95069.03;4894879;29;20263;-84
2022/08/17 01:30:33;;;;;;;6.55;5.90;;;;;;;22.38;55.32;95070.34;4881637;29;20207;-84
2022/08/17 01:33:00;;;;;;;7.35;5.50;;;;;;;22.40;55.19;95069.03;4899103;29;20235;-84
2022/08/17 01:35:27;;;;;;;6.55;5.47;;;;;;;22.44;54.76;95071.13;4896995;29;20235;-84
2022/08/17 01:37:53;;;;;;;6.53;5.72;;;;;;;22.39;54.58;95079.78;4880835;29;20207;-84
2022/08/17 01:40:27;;;;;;;6.10;5.50;;;;;;;22.31;55.07;95070.63;4897394;29;20575;-84
2022/08/17 01:42:56;;;;;;;5.90;5.40;;;;;;;22.23;55.48;95076.38;4880939;29;20203;-84
2022/08/17 01:45:26;;;;;;;7.88;6.15;;;;;;;22.22;55.16;95068.78;4880143;29;20235;-84
2022/08/17 01:47:54;;;;;;;6.55;5.85;;;;;;;22.15;55.59;95068.22;4881184;29;20276;-84
2022/08/17 01:50:24;;;;;;;6.38;5.78;;;;;;;22.20;55.41;95073.47;4896924;29;20397;-84
2022/08/17 01:52:58;;;;;;;7.88;6.05;;;;;;;22.16;55.35;95065.34;4880863;29;20279;-83
2022/08/17 01:55:31;;;;;;;6.82;6.22;;;;;;;21.96;56.34;95062.69;4897388;29;20663;-84
2022/08/17 01:57:58;;;;;;;6.05;5.45;;;;;;;21.87;56.56;95057.16;4899389;29;20270;-84
2022/08/17 02:00:25;;;;;;;6.55;5.95;;;;;;;21.51;57.82;95050.28;4882147;29;20762;-83
2022/08/17 02:02:51;;;;;;;7.03;6.03;;;;;;;21.53;58.16;95045.56;4899129;29;20267;-84
2022/08/17 02:05:18;;;;;;;6.40;5.85;;;;;;;21.47;58.25;95047.38;4893835;29;20241;-84
2022/08/17 02:07:45;;;;;;;6.10;5.45;;;;;;;21.55;58.32;95049.47;4898909;29;20289;-84
2022/08/17 02:10:12;;;;;;;6.28;5.78;;;;;;;21.71;57.58;95052.94;4885518;29;20208;-84
2022/08/17 02:12:39;;;;;;;5.70;5.20;;;;;;;21.89;57.22;95057.69;4897451;29;20278;-84
2022/08/17 02:15:07;;;;;;;7.78;5.60;;;;;;;22.05;56.49;95056.69;4885938;29;20239;-84
2022/08/17 02:17:34;;;;;;;5.65;5.20;;;;;;;22.12;56.47;95068.78;4880756;29;20580;-84
2022/08/17 02:20:00;;;;;;;7.20;5.53;;;;;;;22.08;55.84;95068.50;4890373;29;20692;-84
2022/08/17 02:22:28;;;;;;;6.30;5.70;;;;;;;21.98;55.97;95063.19;4882646;29;20204;-83
2022/08/17 02:24:55;;;;;;;5.90;5.40;;;;;;;21.84;56.44;95064.75;4889052;29;20241;-83
2022/08/17 02:27:22;;;;;;;6.38;5.78;;;;;;;21.86;56.74;95050.34;4899184;29;20206;-84
2022/08/17 02:29:49;;;;;;;6.65;5.85;;;;;;;21.94;56.38;95057.69;4891284;29;20700;-83
2022/08/17 02:32:17;;;;;;;7.07;5.60;;;;;;;21.92;56.48;95049.31;4894006;29;20226;-83
2022/08/17 02:34:44;;;;;;;6.20;5.70;;;;;;;21.90;56.37;95045.38;4891276;29;20736;-83
2022/08/17 02:37:10;;;;;;;6.22;5.63;;;;;;;21.78;56.56;95050.84;4879623;29;20211;-84
2022/08/17 02:39:37;;;;;;;6.63;6.00;;;;;;;21.71;56.92;95043.25;4888570;29;20199;-83
2022/08/17 02:42:04;;;;;;;6.45;5.72;;;;;;;21.65;57.58;95038.25;4885521;29;20203;-84
2022/08/17 02:44:31;;;;;;;6.40;5.80;;;;;;;21.49;57.97;95042.66;4890770;29;20856;-84
2022/08/17 02:46:59;;;;;;;6.60;5.90;;;;;;;21.42;58.52;95033.47;4895148;29;20207;-84
2022/08/17 02:49:25;;;;;;;6.68;5.90;;;;;;;21.41;58.59;95035.31;4884352;29;20255;-84
2022/08/17 02:51:52;;;;;;;7.25;5.82;;;;;;;21.49;57.82;95040.06;4882516;29;20252;-83
2022/08/17 02:54:18;;;;;;;6.93;6.22;;;;;;;21.50;58.38;95039.00;4884167;29;20273;-84
2022/08/17 02:56:44;;;;;;;6.20;5.60;;;;;;;21.55;57.97;95025.91;4892886;29;20635;-84
2022/08/17 02:59:11;;;;;;;6.53;6.03;;;;;;;21.51;57.89;95018.84;4903172;29;20309;-83
2022/08/17 03:01:37;;;;;;;9.18;6.40;;;;;;;21.30;58.91;95015.38;4892798;29;20207;-84
2022/08/17 03:04:05;;;;;;;6.30;5.70;;;;;;;21.30;58.63;95018.78;4891663;29;20238;-84
2022/08/17 03:06:32;;;;;;;6.50;5.90;;;;;;;21.22;59.45;95010.63;4893872;29;20202;-84
2022/08/17 03:08:58;;;;;;;6.32;5.80;;;;;;;21.01;60.16;95010.50;4884007;29;20215;-83
2022/08/17 03:11:25;;;;;;;6.28;5.47;;;;;;;21.00;59.63;95002.91;4889119;29;20198;-83
2022/08/17 03:13:51;;;;;;;6.15;5.47;;;;;;;21.15;59.15;95013.47;4901672;29;20729;-84
2022/08/17 03:16:17;;;;;;;6.25;5.65;;;;;;;21.25;58.90;95015.34;4896528;29;20252;-84
2022/08/17 03:18:44;;;;;;;7.45;5.78;;;;;;;21.43;57.76;95014.09;4883460;29;20631;-84
2022/08/17 03:21:12;;;;;;;6.05;5.00;;;;;;;21.54;56.81;95011.25;4888309;29;20211;-83
2022/08/17 03:23:40;;;;;;;5.88;5.00;;;;;;;21.63;55.87;95014.13;4902597;29;20321;-84
2022/08/17 03:26:07;;;;;;;5.90;5.30;;;;;;;21.78;55.50;95013.38;4898579;29;20199;-84
2022/08/17 03:28:34;;;;;;;5.70;5.20;;;;;;;21.89;54.79;95012.34;4883416;29;20649;-84
2022/08/17 03:31:00;;;;;;;6.95;4.95;;;;;;;22.01;54.63;95018.16;4885693;29;20199;-84
2022/08/17 03:33:26;;;;;;;5.72;4.90;;;;;;;21.97;54.81;95022.31;4899995;29;20231;-84
2022/08/17 03:35:53;;;;;;;4.80;4.40;;;;;;;22.00;54.85;95029.69;4882322;29;20220;-84
2022/08/17 03:38:20;;;;;;;6.22;5.20;;;;;;;21.97;54.88;95028.34;4882375;29;20668;-83
2022/08/17 03:40:48;;;;;;;7.07;5.50;;;;;;;21.94;55.03;95031.47;4882874;29;20203;-84
2022/08/17 03:43:16;;;;;;;6.72;5.32;;;;;;;21.95;55.13;95035.66;4882956;29;20554;-83
2022/08/17 03:57:00;;;;;;;5.07;4.53;;;;;;;21.90;53.48;95034.91;4900634;29;20333;-84
2022/08/17 03:59:26;;;;;;;4.60;4.20;;;;;;;21.90;53.49;95040.94;4896116;29;20207;-84
2022/08/17 04:01:57;;;;;;;5.32;4.13;;;;;;;21.89;53.35;95039.34;4890600;29;20764;-85
2022/08/17 04:04:24;;;;;;;4.55;4.15;;;;;;;21.92;53.00;95041.47;4891852;29;20257;-84
2022/08/17 04:06:50;;;;;;;4.70;4.30;;;;;;;21.84;53.35;95041.97;4900276;29;20206;-84
2022/08/17 04:09:18;;;;;;;4.82;4.43;;;;;;;21.82;53.18;95048.50;4889296;29;20206;-84
2022/08/17 04:11:44;;;;;;;4.90;4.50;;;;;;;21.85;52.97;95045.38;4895447;29;20255;-84
2022/08/17 04:14:11;;;;;;;4.45;4.05;;;;;;;21.88;52.78;95052.72;4900541;29;20242;-83
2022/08/17 04:16:37;;;;;;;4.38;4.05;;;;;;;21.94;52.71;95044.59;4900439;29;20206;-84
2022/08/17 04:19:04;;;;;;;4.70;4.30;;;;;;;21.94;52.47;95041.97;4886707;29;20215;-84
2022/08/17 04:21:31;;;;;;;4.65;4.30;;;;;;;22.08;53.60;95046.75;4886538;29;20195;-84
2022/08/17 04:23:58;;;;;;;5.32;4.28;;;;;;;22.25;55.30;95047.28;4886680;29;20244;-84
2022/08/17 04:26:27;;;;;;;4.88;4.07;;;;;;;22.38;54.63;95031.78;4880862;29;20208;-84
2022/08/17 04:28:53;;;;;;;5.95;4.35;;;;;;;22.60;53.30;95039.38;4880054;29;20204;-84
2022/08/17 04:31:20;;;;;;;4.25;3.90;;;;;;;22.60;52.32;95033.34;4879914;29;20203;-85
2022/08/17 04:33:46;;;;;;;4.60;4.20;;;;;;;22.45;52.38;95034.16;4878894;29;20244;-85
2022/08/17 04:36:15;;;;;;;5.75;4.35;;;;;;;22.55;52.43;95038.59;4880381;29;20230;-85
2022/08/17 04:38:43;;;;;;;4.35;4.05;;;;;;;22.44;52.56;95035.19;4880606;29;20751;-84
2022/08/17 04:43:57;;;;;;;5.25;4.07;;;;;;;22.50;52.69;95028.09;4896064;29;20261;-84
2022/08/17 04:46:25;;;;;;;4.35;3.95;;;;;;;22.70;52.81;95034.13;4899239;29;20263;-84
2022/08/17 04:48:54;;;;;;;4.50;4.10;;;;;;;22.94;52.44;95030.91;4899404;29;20262;-84
2022/08/17 04:51:24;;;;;;;6.68;4.05;;;;;;;23.11;52.22;95031.38;4899106;29;20642;-84
2022/08/17 04:53:52;;;;;;;4.95;4.20;;;;;;;23.25;51.67;95035.03;4898480;29;20737;-84
2022/08/17 04:56:19;;;;;;;5.13;4.10;;;;;;;23.41;51.92;95033.91;4898660;29;20199;-85
2022/08/17 04:58:48;;;;;;;4.80;4.32;;;;;;;23.48;51.09;95030.97;4898857;29;20582;-84
2022/08/17 05:01:17;;;;;;;5.07;4.65;;;;;;;23.37;50.47;95029.44;4896305;29;20202;-84
2022/08/17 05:03:44;;;;;;;7.40;4.18;;;;;;;23.29;50.48;95033.41;4891482;29;20314;-84
2022/08/17 05:06:10;;;;;;;5.90;4.20;;;;;;;23.37;50.42;95034.69;4878525;29;20240;-84
2022/08/17 05:08:37;;;;;;;4.55;4.15;;;;;;;23.31;49.25;95026.03;4897432;29;20255;-84
2022/08/17 05:11:04;;;;;;;4.50;4.10;;;;;;;23.32;49.68;95032.09;4894902;29;20787;-84
2022/08/17 05:13:30;;;;;;;4.63;4.10;;;;;;;23.26;49.84;95030.56;4869657;29;20774;-85
2022/08/17 05:16:00;;;;;;;4.47;4.07;;;;;;;23.08;49.64;95037.97;4893804;29;20259;-84
2022/08/17 05:18:30;;;;;;;4.63;4.22;;;;;;;22.95;50.28;95035.13;4894451;29;20211;-85
2022/08/17 05:20:57;;;;;;;18.52;7.18;;;;;;;22.95;50.49;95035.91;4897270;29;20902;-85
2022/08/17 05:23:25;;;;;;;18.27;8.25;;;;;;;23.01;50.81;95044.56;4899276;29;20251;-85
2022/08/17 05:25:55;;;;;;;18.55;8.32;;;;;;;23.02;51.03;95044.28;4899881;29;20206;-85
2022/08/17 05:28:22;;;;;;;5.80;4.32;;;;;;;23.23;50.08;95054.72;4902058;29;20206;-85
2022/08/17 05:30:49;;;;;;;4.22;3.92;;;;;;;23.33;49.68;95049.44;4903504;29;20634;-84
2022/08/17 05:33:19;;;;;;;13.98;12.68;;;;;;;23.17;49.84;95053.16;4904790;29;20234;-84
2022/08/17 05:35:49;;;;;;;7.78;6.82;;;;;;;23.21;49.49;95051.59;4901912;29;20270;-85
2022/08/17 05:38:17;;;;;;;8.45;7.63;;;;;;;23.18;49.59;95062.63;4904655;29;20207;-83
2022/08/17 05:40:44;;;;;;;9.50;8.63;;;;;;;23.09;49.91;95062.41;4904262;29;20215;-84
2022/08/17 05:43:13;;;;;;;7.22;6.60;;;;;;;23.15;49.83;95058.69;4900221;29;20234;-83
2022/08/17 05:45:45;;;;;;;6.13;4.30;;;;;;;23.19;49.35;95058.94;4903966;29;20231;-84
2022/08/17 05:48:12;;;;;;;5.25;4.60;;;;;;;23.14;49.88;95049.25;4890640;29;20204;-84
2022/08/17 05:50:48;;;;;;;4.13;3.83;;;;;;;22.99;49.97;95052.69;4884914;29;20204;-84
2022/08/17 05:53:22;;;;;;;5.05;4.38;;;;;;;22.99;50.02;95050.06;4892346;29;20290;-84
2022/08/17 05:56:00;;;;;;;4.50;4.10;;;;;;;23.12;50.00;95055.81;4890620;29;20594;-84
2022/08/17 05:58:35;;;;;;;4.55;3.97;;;;;;;23.28;49.72;95052.09;4903492;29;20203;-84
2022/08/17 06:01:07;;;;;;;8.55;3.78;;;;;;;23.42;49.16;95067.00;4902545;29;20203;-85
2022/08/17 06:03:42;;;;;;;4.72;3.97;;;;;;;23.49;49.41;95066.69;4896116;29;20223;-83
2022/08/17 06:06:22;;;;;;;5.15;4.18;;;;;;;23.59;49.22;95063.28;4903053;29;20296;-84
2022/08/17 06:08:53;;;;;;;4.55;4.15;;;;;;;23.50;49.86;95059.59;4885300;29;20215;-84
2022/08/17 06:11:26;;;;;;;5.28;3.75;;;;;;;23.56;49.56;95064.59;4883108;29;20215;-83
2022/08/17 06:14:21;;;;;;;4.32;3.88;;;;;;;23.67;49.88;95065.31;4889747;29;20298;-84
2022/08/17 06:16:55;;;;;;;6.38;3.80;;;;;;;23.73;49.49;95078.19;4901748;29;20242;-84
2022/08/17 06:19:33;;;;;;;4.22;3.75;;;;;;;23.74;49.61;95085.00;4903776;29;20218;-84
2022/08/17 06:22:02;;;;;;;4.05;3.75;;;;;;;23.85;49.17;95088.38;4900635;29;20259;-84
2022/08/17 06:24:36;;;;;;;7.05;6.55;;;;;;;23.86;49.70;95078.66;4894890;29;20258;-83
2022/08/17 06:27:09;;;;;;;8.35;7.63;;;;;;;23.91;49.48;95079.38;4889343;29;20281;-83
2022/08/17 06:29:43;;;;;;;9.95;8.98;;;;;;;23.87;50.03;95075.72;4888357;29;20239;-84
2022/08/17 06:32:11;;;;;;;11.18;10.20;;;;;;;23.87;50.24;95083.63;4891262;29;20227;-84
2022/08/17 06:34:39;;;;;;;8.20;6.47;;;;;;;23.95;50.32;95092.78;4891810;29;20323;-83
2022/08/17 06:37:18;;;;;;;9.65;6.13;;;;;;;24.02;50.01;95088.81;4890548;29;20230;-84
2022/08/17 06:39:55;;;;;;;5.85;5.13;;;;;;;24.09;49.97;95099.00;4906579;29;20210;-84
2022/08/17 06:42:30;;;;;;;5.10;4.70;;;;;;;24.10;50.27;95105.84;4896774;29;20614;-84
2022/08/17 06:45:06;;;;;;;6.93;4.55;;;;;;;24.19;49.73;95098.16;4902733;29;20546;-83
2022/08/17 06:47:37;;;;;;;5.40;4.30;;;;;;;24.26;49.63;95096.03;4891674;29;20199;-84
2022/08/17 06:50:15;;;;;;;5.50;4.05;;;;;;;24.33;49.72;95104.41;4895298;29;20231;-84
2022/08/17 06:52:53;;;;;;;4.28;3.88;;;;;;;24.45;49.71;95107.47;4906324;29;20214;-83
2022/08/17 06:55:26;;;;;;;4.22;3.92;;;;;;;24.56;49.06;95113.44;4897958;29;20248;-84
2022/08/17 06:57:57;;;;;;;6.32;5.72;;;;;;;24.61;49.34;95111.56;4906109;29;20210;-84
2022/08/17 07:00:27;;;;;;;5.70;5.20;;;;;;;24.57;49.64;95109.75;4894317;29;20716;-83
2022/08/17 07:02:58;;;;;;;7.80;5.80;;;;;;;24.64;49.63;95116.25;4887098;29;20684;-83
2022/08/17 07:05:30;;;;;;;7.40;6.65;;;;;;;24.80;49.11;95116.94;4886512;29;20262;-84
2022/08/17 07:08:02;;;;;;;7.28;6.68;;;;;;;24.96;48.58;95128.16;4903584;29;20195;-83
2022/08/17 07:10:36;;;;;;;5.47;4.43;;;;;;;25.10;48.24;95132.47;4893860;29;20725;-83
2022/08/17 07:13:15;;;;;;;5.32;4.10;;;;;;;25.18;48.01;95127.66;4887150;29;20211;-84
2022/08/17 07:15:43;;;;;;;5.10;4.15;;;;;;;25.22;47.78;95133.94;4898790;29;20227;-84
2022/08/17 07:18:09;;;;;;;5.55;4.40;;;;;;;25.26;47.96;95140.22;4887261;29;20207;-84
2022/08/17 07:20:42;;;;;;;6.93;4.35;;;;;;;25.38;47.73;95136.16;4897082;29;20382;-83
2022/08/17 07:23:19;;;;;;;4.70;4.30;;;;;;;25.57;47.10;95138.84;4904110;29;20238;-84
2022/08/17 07:25:48;;;;;;;5.55;4.07;;;;;;;25.60;47.32;95135.63;4888791;29;20223;-83
2022/08/17 07:28:21;;;;;;;4.60;4.05;;;;;;;25.40;46.54;95136.63;4901721;29;20202;-83
2022/08/17 07:30:53;;;;;;;4.57;4.10;;;;;;;25.29;46.88;95137.03;4887822;29;20704;-83
2022/08/17 07:33:22;;;;;;;4.72;4.20;;;;;;;25.33;47.18;95143.31;4882556;29;20274;-83
2022/08/17 07:35:49;;;;;;;4.65;4.20;;;;;;;25.47;47.03;95145.00;4897982;29;20255;-83
2022/08/17 07:38:17;;;;;;;4.55;4.15;;;;;;;25.62;46.86;95143.25;4904796;29;20231;-83
2022/08/17 07:40:48;;;;;;;7.47;4.35;;;;;;;25.63;46.21;95145.63;4890356;29;20248;-83
2022/08/17 07:43:22;;;;;;;4.55;4.15;;;;;;;25.63;46.04;95150.91;4886098;29;20275;-83
2022/08/17 07:48:42;;;;;;;6.07;4.30;;;;;;;25.68;46.10;95171.16;4884838;29;20271;-83
2022/08/17 07:51:23;;;;;;;6.22;4.55;;;;;;;25.66;46.21;95160.09;4884019;29;20568;-83
2022/08/17 07:53:51;;;;;;;4.75;4.35;;;;;;;25.70;45.41;95156.63;4885188;29;20326;-83
2022/08/17 07:56:35;;;;;;;7.72;5.50;;;;;;;25.69;45.55;95157.69;4900815;29;20255;-83
2022/08/17 07:59:10;;;;;;;7.10;6.30;;;;;;;25.90;45.63;95160.09;4904202;29;20214;-84
2022/08/17 08:01:37;;;;;;;5.93;4.75;;;;;;;26.12;45.91;95161.13;4885697;29;20278;-83
2022/08/17 08:04:21;;;;;;;4.85;4.35;;;;;;;26.12;44.26;95158.47;4893001;29;20238;-83
2022/08/17 08:06:53;;;;;;;8.68;4.25;;;;;;;26.24;44.58;95165.19;4896044;29;20202;-83
2022/08/17 08:09:37;;;;;;;5.63;4.22;;;;;;;26.26;43.96;95155.91;4902193;29;20229;-83
2022/08/17 08:12:32;;;;;;;7.30;4.15;;;;;;;26.44;44.89;95155.16;4892566;29;20210;-84
2022/08/17 08:15:01;;;;;;;5.05;4.45;;;;;;;26.53;43.78;95157.16;4902014;29;20239;-83
2022/08/17 08:17:34;;;;;;;7.72;3.97;;;;;;;26.50;43.51;95150.59;4902795;29;20206;-83
2022/08/17 08:20:03;;;;;;;4.82;3.92;;;;;;;26.55;44.20;95152.38;4892189;29;20211;-83
2022/08/17 08:22:41;;;;;;;4.88;4.38;;;;;;;26.71;44.71;95153.69;4895928;29;20192;-84
2022/08/17 08:25:17;;;;;;;4.97;4.57;;;;;;;26.90;44.84;95153.66;4883870;29;20239;-84
2022/08/17 08:27:54;;;;;;;6.05;4.43;;;;;;;27.04;44.09;95141.28;4897655;29;20266;-82
2022/08/17 08:30:22;;;;;;;4.95;3.90;;;;;;;27.13;44.21;95142.94;4891215;29;20627;-83
2022/08/17 08:33:11;;;;;;;4.72;4.32;;;;;;;27.38;43.70;95144.38;4904019;29;20213;-83
2022/08/17 08:35:46;;;;;;;8.98;4.35;;;;;;;27.57;43.59;95146.13;4882889;29;20315;-83
2022/08/17 08:38:22;;;;;;;4.35;3.95;;;;;;;27.78;43.80;95150.75;4892910;29;20261;-83
2022/08/17 08:41:03;;;;;;;6.57;4.28;;;;;;;27.98;42.85;95146.13;4899302;29;20241;-83
2022/08/17 08:43:40;;;;;;;5.43;4.53;;;;;;;27.91;42.51;95140.44;4885230;29;20235;-82
2022/08/17 08:46:18;;;;;;;6.13;4.70;;;;;;;27.89;42.65;95139.97;4903036;29;20190;-83
2022/08/17 08:49:17;;;;;;;5.82;4.45;;;;;;;27.88;42.47;95135.78;4902893;29;20663;-82
2022/08/17 08:51:51;;;;;;;14.77;13.45;;;;;;;27.96;42.59;95137.69;4892315;29;20203;-83
2022/08/17 08:54:32;;;;;;;10.13;9.23;;;;;;;28.03;42.92;95127.50;4880878;29;20235;-83
2022/08/17 08:57:10;;;;;;;7.45;6.40;;;;;;;28.35;42.44;95127.31;4897555;29;20211;-83
2022/08/17 08:59:47;;;;;;;6.38;4.97;;;;;;;28.48;41.38;95129.13;4894683;29;20203;-83
2022/08/17 09:02:29;;;;;;;4.78;4.25;;;;;;;28.57;41.71;95129.22;4880688;29;20294;-83
2022/08/17 09:05:10;;;;;;;5.18;4.47;;;;;;;28.61;41.42;95127.53;4886866;29;20239;-83
2022/08/17 09:07:49;;;;;;;5.32;4.28;;;;;;;28.69;40.46;95121.50;4885301;29;20234;-83
2022/08/17 09:10:23;;;;;;;5.45;4.10;;;;;;;28.87;40.48;95131.16;4898467;29;20210;-83
2022/08/17 09:12:58;;;;;;;12.90;4.40;;;;;;;29.00;40.51;95136.69;4881476;29;20260;-84
2022/08/17 09:15:30;;;;;;;4.95;4.55;;;;;;;29.23;40.16;95140.88;4897452;29;20230;-84
2022/08/17 09:18:02;;;;;;;4.88;4.20;;;;;;;29.29;39.92;95141.50;4881587;29;20188;-84
2022/08/17 09:20:34;;;;;;;4.57;4.20;;;;;;;29.50;40.13;95150.50;4881776;29;20591;-85
2022/08/17 09:23:07;;;;;;;4.50;4.20;;;;;;;29.62;38.79;95145.41;4889703;29;20203;-84
2022/08/17 09:25:44;;;;;;;5.47;4.00;;;;;;;29.51;38.54;95139.59;4880270;29;20703;-85
2022/08/17 09:28:19;;;;;;;4.32;4.03;;;;;;;29.51;38.58;95136.94;4889639;29;20209;-85
2022/08/17 09:30:50;;;;;;;4.65;4.22;;;;;;;29.67;38.77;95120.59;4898399;29;20236;-84
2022/08/17 09:33:24;;;;;;;5.93;4.05;;;;;;;29.86;37.33;95111.28;4885490;29;20199;-83
2022/08/17 09:35:55;;;;;;;4.38;4.07;;;;;;;30.02;37.91;95124.91;4898909;29;20226;-84
2022/08/17 09:38:32;;;;;;;4.40;4.00;;;;;;;30.09;38.17;95117.28;4891131;29;20232;-84
2022/08/17 09:41:15;;;;;;;6.70;4.00;;;;;;;30.18;37.69;95118.06;4880183;29;20215;-82
2022/08/17 09:43:46;;;;;;;5.53;3.80;;;;;;;30.17;36.34;95134.31;4883780;29;20250;-82
2022/08/17 09:46:20;;;;;;;3.92;3.63;;;;;;;30.11;36.74;95138.22;4884665;29;20215;-82
2022/08/17 09:48:54;;;;;;;4.20;3.50;;;;;;;30.19;37.07;95124.94;4895346;29;20206;-82
2022/08/17 09:51:24;;;;;;;6.30;5.80;;;;;;;30.35;36.50;95133.22;4882860;29;20641;-82
2022/08/17 09:53:51;;;;;;;4.82;4.53;;;;;;;30.43;36.38;95121.81;4878776;29;20255;-82
2022/08/17 09:56:30;;;;;;;6.28;4.30;;;;;;;30.51;36.14;95131.66;4889890;29;20223;-82
2022/08/17 09:59:18;;;;;;;4.80;4.20;;;;;;;30.55;35.46;95129.97;4880413;29;20259;-83
2022/08/17 10:01:52;;;;;;;6.05;4.10;;;;;;;30.58;35.68;95125.13;4893829;29;20266;-83
2022/08/17 10:04:32;;;;;;;4.22;3.88;;;;;;;30.65;35.55;95130.72;4889473;29;20593;-82
2022/08/17 10:07:06;;;;;;;4.40;4.00;;;;;;;30.68;35.60;95130.88;4879534;29;20290;-82
2022/08/17 10:09:51;;;;;;;4.32;3.92;;;;;;;30.73;35.86;95136.06;4879504;29;20211;-83
2022/08/17 10:12:30;;;;;;;4.82;4.18;;;;;;;30.92;35.45;95131.16;4878833;29;20659;-83
2022/08/17 10:15:09;;;;;;;4.20;3.85;;;;;;;30.95;35.24;95127.09;4879173;29;20235;-83
2022/08/17 10:17:45;;;;;;;4.13;3.78;;;;;;;31.02;35.11;95131.91;4897107;29;20265;-83
2022/08/17 10:20:16;;;;;;;3.95;3.65;;;;;;;31.09;35.07;95132.22;4894585;29;20218;-83
2022/08/17 10:28:39;;;;;;;8.63;7.88;;;;;;;31.36;34.39;95123.88;4864380;29;20649;-83
2022/08/17 10:31:09;;;;;;;5.25;4.85;;;;;;;31.40;34.67;95121.31;4890511;29;20267;-82
2022/08/17 10:33:49;;;;;;;5.10;4.22;;;;;;;31.40;34.79;95124.00;4886476;29;20405;-83
2022/08/17 10:36:24;;;;;;;4.03;3.72;;;;;;;31.47;34.87;95118.97;4878302;29;20725;-82
2022/08/17 10:39:01;;;;;;;4.38;3.95;;;;;;;31.46;34.23;95122.72;4880194;29;20207;-83
2022/08/17 10:41:33;;;;;;;5.63;4.03;;;;;;;31.53;34.42;95123.00;4878448;29;20684;-82
2022/08/17 10:44:04;;;;;;;4.55;4.18;;;;;;;31.48;34.41;95123.19;4880987;29;20291;-82
2022/08/17 10:46:51;;;;;;;6.13;4.05;;;;;;;31.29;34.33;95122.78;4878454;29;20206;-83
2022/08/17 10:49:32;;;;;;;4.13;3.70;;;;;;;30.98;34.27;95126.47;4884397;29;20278;-82
2022/08/17 10:52:01;;;;;;;4.00;3.70;;;;;;;30.91;34.46;95134.13;4896691;29;20214;-83
2022/08/17 10:54:47;;;;;;;4.00;3.70;;;;;;;30.98;34.42;95129.13;4888774;29;20303;-82
2022/08/17 10:57:41;;;;;;;4.47;4.07;;;;;;;31.21;34.27;95121.72;4895061;29;20207;-83
2022/08/17 11:00:14;;;;;;;3.90;3.60;;;;;;;31.27;34.41;95120.44;4879372;29;20219;-83
2022/08/17 11:02:52;;;;;;;4.80;3.97;;;;;;;31.38;33.70;95118.97;4880866;29;20203;-83
2022/08/17 11:05:47;;;;;;;4.25;3.88;;;;;;;31.41;33.29;95126.34;4882873;29;20235;-83
2022/08/17 11:08:44;;;;;;;5.63;3.60;;;;;;;31.41;33.49;95123.66;4901356;29;20716;-83
2022/08/17 11:11:24;;;;;;;3.42;3.20;;;;;;;31.44;32.99;95123.03;4900792;29;20254;-83
2022/08/17 11:14:07;;;;;;;4.07;3.75;;;;;;;31.76;33.40;95128.84;4885511;29;20715;-83
2022/08/17 11:16:46;;;;;;;3.65;3.35;;;;;;;31.91;32.45;95133.63;4883458;29;20227;-83
2022/08/17 11:19:37;;;;;;;3.97;3.70;;;;;;;31.88;32.17;95129.75;4901450;29;20230;-83
2022/08/17 11:22:28;;;;;;;8.32;3.40;;;;;;;31.91;32.03;95123.78;4900945;29;20206;-83
2022/08/17 11:24:57;;;;;;;3.83;3.45;;;;;;;31.79;32.96;95114.91;4882667;29;20291;-83
2022/08/17 11:27:27;;;;;;;4.07;3.58;;;;;;;31.71;33.39;95116.53;4883443;29;20232;-83
2022/08/17 11:29:57;;;;;;;9.23;8.32;;;;;;;31.86;32.65;95115.19;4882124;29;20278;-83
2022/08/17 11:32:36;;;;;;;8.50;7.32;;;;;;;31.85;31.90;95119.72;4883243;29;20302;-83
2022/08/17 11:35:29;;;;;;;5.10;4.60;;;;;;;31.87;32.03;95122.06;4900809;29;20237;-83
2022/08/17 11:38:09;;;;;;;4.47;3.75;;;;;;;31.77;31.79;95117.09;4894841;29;20208;-83
2022/08/17 11:40:46;;;;;;;4.57;3.85;;;;;;;31.73;31.58;95117.00;4881168;29;20208;-83
2022/08/17 11:43:31;;;;;;;4.88;4.28;;;;;;;31.80;31.68;95108.47;4888222;29;20203;-83
2022/08/17 11:46:12;;;;;;;4.78;3.70;;;;;;;31.77;31.48;95101.13;4899917;29;20286;-83
2022/08/17 11:52:09;;;;;;;107.25;11.98;;;;;;;31.84;32.20;95109.41;4877316;29;20304;-82
2022/08/17 11:54:40;;;;;;;4.10;3.70;;;;;;;31.54;31.88;95121.91;4878127;29;20724;-83
2022/08/17 11:58:00;;;;;;;4.15;3.70;;;;;;;31.52;32.32;95134.75;4894613;29;20259;-84
2022/08/17 12:00:56;;;;;;;3.75;3.45;;;;;;;31.63;32.11;95129.84;4848024;29;20219;-84
2022/08/17 12:03:43;;;;;;;16.42;14.93;;;;;;;31.94;32.52;95130.34;4845365;29;20339;-85
2022/08/17 12:06:26;;;;;;;4.57;4.25;;;;;;;32.08;31.76;95122.09;4888752;29;20736;-85
2022/08/17 12:08:55;;;;;;;5.03;4.53;;;;;;;32.17;32.31;95123.56;4879037;29;20203;-86
2022/08/17 12:11:30;;;;;;;4.38;4.03;;;;;;;32.21;30.87;95129.84;4877260;29;20620;-85
2022/08/17 12:14:00;;;;;;;4.47;4.05;;;;;;;32.24;31.51;95131.88;4895701;29;20227;-86
2022/08/17 12:16:27;;;;;;;5.45;3.92;;;;;;;32.32;31.06;95130.25;4894496;29;20230;-85
2022/08/17 12:18:57;;;;;;;5.43;4.13;;;;;;;32.47;31.33;95120.88;4879170;29;20216;-85
2022/08/17 12:21:42;;;;;;;5.90;3.85;;;;;;;32.56;30.66;95129.56;4876652;29;20200;-84
2022/08/17 12:24:28;;;;;;;3.90;3.60;;;;;;;32.52;30.94;95123.34;4877005;29;20223;-84